Time;durP1;ratioP1;P1;durP2;ratioP2;P2;SDS_P1;SDS_P2;PMS_P1;PMS_P2;Temp;Humidity;BMP_temperature;BMP_pressure;BME280_temperature;BME280_humidity;BME280_pressure;Samples;Min_cycle;Max_cycle;Signal;HPM_P1;HPM_P2
2022/02/24 00:02:37;;;;;;;1.40;1.30;;;3.50;99.90;;;;;;4435176;32;20061;-64
2022/02/24 00:05:03;;;;;;;0.30;0.30;;;3.50;99.90;;;;;;4425108;32;20089;-64
2022/02/24 00:07:28;;;;;;;0.65;0.65;;;3.60;99.90;;;;;;4438102;32;20081;-64
2022/02/24 00:09:54;;;;;;;0.40;0.40;;;3.70;99.90;;;;;;4443205;32;20100;-64
2022/02/24 00:12:19;;;;;;;0.70;0.70;;;3.70;99.90;;;;;;4443923;32;20446;-64
2022/02/24 00:14:45;;;;;;;2.37;1.40;;;3.60;99.90;;;;;;4438495;32;20072;-64
2022/02/24 00:19:39;;;;;;;0.30;0.30;;;3.40;99.90;;;;;;4433373;32;20123;-64
2022/02/24 00:22:05;;;;;;;0.75;0.60;;;3.40;99.90;;;;;;4434754;32;20068;-64
2022/02/24 00:24:30;;;;;;;2.92;1.30;;;3.40;99.90;;;;;;4436187;32;20080;-64
2022/02/24 00:26:56;;;;;;;13.55;3.12;;;3.40;99.90;;;;;;4435165;32;20104;-64
2022/02/24 00:29:22;;;;;;;0.85;0.85;;;3.60;99.90;;;;;;4419871;32;20549;-64
2022/02/24 00:31:47;;;;;;;1.27;1.17;;;3.80;99.90;;;;;;4437555;32;20487;-64
2022/02/24 00:34:15;;;;;;;0.57;0.57;;;3.80;99.90;;;;;;4435195;32;20463;-64
2022/02/24 00:36:40;;;;;;;0.40;0.40;;;3.70;99.90;;;;;;4439736;32;20488;-64
2022/02/24 00:39:05;;;;;;;0.80;0.80;;;3.60;99.90;;;;;;4433903;32;20402;-64
2022/02/24 00:41:31;;;;;;;0.50;0.50;;;3.50;99.90;;;;;;4431161;32;20430;-64
2022/02/24 00:43:56;;;;;;;4.60;0.82;;;3.50;99.90;;;;;;4433199;32;20081;-64
2022/02/24 00:46:22;;;;;;;0.88;0.85;;;3.50;99.90;;;;;;4435352;32;20474;-64
2022/02/24 00:48:47;;;;;;;0.47;0.47;;;3.50;99.90;;;;;;4435769;32;20541;-64
2022/02/24 00:51:13;;;;;;;0.68;0.68;;;3.40;99.90;;;;;;4433725;32;20077;-64
2022/02/24 00:53:41;;;;;;;0.50;0.50;;;3.50;99.90;;;;;;4433351;32;20068;-64
2022/02/24 00:56:08;;;;;;;0.60;0.60;;;3.50;99.90;;;;;;4423794;32;20488;-64
2022/02/24 00:58:33;;;;;;;1.45;1.20;;;3.50;99.90;;;;;;4441437;32;20081;-64
2022/02/24 01:00:59;;;;;;;1.65;1.27;;;3.70;99.90;;;;;;4441286;32;20068;-64
2022/02/24 01:03:24;;;;;;;0.57;0.57;;;3.70;99.90;;;;;;4438524;32;20080;-64
2022/02/24 01:05:50;;;;;;;0.40;0.40;;;3.70;99.90;;;;;;4435286;32;20061;-64
2022/02/24 01:08:15;;;;;;;0.37;0.37;;;3.80;99.90;;;;;;4437198;32;20136;-64
2022/02/24 01:10:41;;;;;;;0.40;0.40;;;3.80;99.90;;;;;;4434072;32;20131;-64
2022/02/24 01:13:06;;;;;;;0.40;0.40;;;3.80;99.90;;;;;;4432438;32;20081;-64
2022/02/24 01:15:32;;;;;;;0.80;0.80;;;3.80;99.90;;;;;;4438896;32;20103;-64
2022/02/24 01:17:57;;;;;;;0.95;0.70;;;3.90;99.90;;;;;;4432923;32;20085;-64
2022/02/24 01:20:23;;;;;;;0.50;0.50;;;4.00;99.90;;;;;;4436843;32;20105;-64
2022/02/24 01:22:49;;;;;;;1.80;1.08;;;3.90;99.90;;;;;;4433858;32;20105;-64
2022/02/24 01:25:19;;;;;;;4.28;1.87;;;3.80;99.90;;;;;;4434842;32;20088;-64
2022/02/24 01:27:46;;;;;;;1.23;1.02;;;3.90;99.90;;;;;;4441654;32;20068;-64
2022/02/24 01:30:12;;;;;;;0.73;0.73;;;3.80;99.90;;;;;;4434169;32;20077;-65
2022/02/24 01:32:37;;;;;;;0.75;0.75;;;3.60;99.90;;;;;;4433103;32;20080;-65
2022/02/24 01:35:03;;;;;;;0.30;0.30;;;3.50;99.90;;;;;;4438921;32;20072;-65
2022/02/24 01:37:29;;;;;;;2.05;0.77;;;3.50;99.90;;;;;;4430929;32;20158;-65
2022/02/24 01:39:55;;;;;;;0.62;0.62;;;3.50;99.90;;;;;;4437176;32;20132;-65
2022/02/24 01:42:20;;;;;;;0.88;0.88;;;3.60;99.90;;;;;;4437942;32;20437;-65
2022/02/24 01:44:47;;;;;;;3.40;0.98;;;3.70;99.90;;;;;;4437672;32;20459;-64
2022/02/24 01:47:13;;;;;;;0.40;0.40;;;3.80;99.90;;;;;;4440310;32;20085;-64
2022/02/24 01:49:39;;;;;;;0.40;0.40;;;3.90;99.90;;;;;;4443507;32;20123;-64
2022/02/24 01:52:06;;;;;;;0.70;0.70;;;3.90;99.90;;;;;;4439086;32;20064;-64
2022/02/24 01:54:34;;;;;;;0.62;0.62;;;3.70;99.90;;;;;;4438008;32;20074;-64
2022/02/24 01:57:00;;;;;;;0.88;0.88;;;3.70;99.90;;;;;;4437949;32;20066;-64
2022/02/24 01:59:26;;;;;;;0.40;0.40;;;3.60;99.90;;;;;;4437088;32;20522;-64
2022/02/24 02:01:52;;;;;;;0.40;0.40;;;3.60;99.90;;;;;;4436147;32;20144;-64
2022/02/24 02:04:17;;;;;;;0.93;0.85;;;3.70;99.90;;;;;;4438343;32;20524;-64
2022/02/24 02:06:43;;;;;;;0.75;0.70;;;3.60;99.90;;;;;;4438880;32;20060;-64
2022/02/24 02:09:10;;;;;;;0.30;0.30;;;3.60;99.90;;;;;;4435855;32;20069;-64
2022/02/24 02:11:36;;;;;;;0.40;0.40;;;3.60;99.90;;;;;;4436790;32;20128;-64
2022/02/24 02:14:02;;;;;;;0.43;0.43;;;3.50;99.90;;;;;;4442226;32;20061;-64
2022/02/24 02:16:27;;;;;;;0.40;0.40;;;3.50;99.90;;;;;;4437775;32;20112;-64
2022/02/24 02:18:53;;;;;;;0.62;0.50;;;3.30;99.90;;;;;;4437696;32;20438;-64
2022/02/24 02:21:18;;;;;;;0.70;0.70;;;3.10;99.90;;;;;;4435456;32;20096;-64
2022/02/24 02:23:43;;;;;;;0.40;0.40;;;3.10;99.90;;;;;;4441599;32;20068;-64
2022/02/24 02:26:09;;;;;;;0.30;0.30;;;3.20;99.90;;;;;;4441991;32;20492;-64
2022/02/24 02:28:35;;;;;;;0.30;0.30;;;3.40;99.90;;;;;;4439561;32;20128;-64
2022/02/24 02:31:00;;;;;;;1.20;1.10;;;3.60;99.90;;;;;;4437115;32;20552;-64
2022/02/24 02:33:26;;;;;;;1.37;1.12;;;3.60;99.90;;;;;;4437272;32;20082;-64
2022/02/24 02:35:51;;;;;;;1.12;0.80;;;3.60;99.90;;;;;;4437747;32;20129;-64
2022/02/24 02:38:17;;;;;;;0.40;0.40;;;3.60;99.90;;;;;;4436959;32;20359;-64
2022/02/24 02:40:42;;;;;;;2.58;0.82;;;3.60;99.90;;;;;;4434993;32;20072;-64
2022/02/24 02:43:09;;;;;;;0.40;0.40;;;3.70;99.90;;;;;;4438192;32;20077;-64
2022/02/24 02:45:35;;;;;;;0.50;0.50;;;3.70;99.90;;;;;;4442005;32;20081;-64
2022/02/24 02:48:01;;;;;;;0.57;0.57;;;3.70;99.90;;;;;;4438200;32;20053;-64
2022/02/24 02:50:28;;;;;;;0.88;0.88;;;3.60;99.90;;;;;;4437608;32;20085;-64
2022/02/24 02:52:54;;;;;;;0.55;0.55;;;3.70;99.90;;;;;;4436948;32;20089;-64
2022/02/24 02:55:20;;;;;;;0.40;0.40;;;3.80;99.90;;;;;;4439989;32;20561;-64
2022/02/24 02:57:46;;;;;;;0.60;0.60;;;3.70;99.90;;;;;;4435585;32;20069;-64
2022/02/24 03:00:13;;;;;;;0.40;0.40;;;3.80;99.90;;;;;;4437715;32;20073;-64
2022/02/24 03:02:39;;;;;;;0.45;0.45;;;3.80;99.90;;;;;;4434114;32;20532;-64
2022/02/24 03:05:05;;;;;;;0.62;0.62;;;3.70;99.90;;;;;;4434747;32;20089;-64
2022/02/24 03:07:30;;;;;;;0.40;0.40;;;3.80;99.90;;;;;;4440331;32;20531;-64
2022/02/24 03:09:56;;;;;;;0.57;0.47;;;3.70;99.90;;;;;;4436964;32;20095;-64
2022/02/24 03:12:21;;;;;;;0.75;0.75;;;3.60;99.90;;;;;;4438815;32;20129;-64
2022/02/24 03:14:47;;;;;;;1.00;0.90;;;3.50;99.90;;;;;;4433519;32;20127;-64
2022/02/24 03:17:14;;;;;;;0.30;0.30;;;3.60;99.90;;;;;;4438925;32;20076;-64
2022/02/24 03:19:39;;;;;;;0.80;0.80;;;3.60;99.90;;;;;;4435527;32;20080;-64
2022/02/24 03:22:09;;;;;;;0.30;0.30;;;3.60;99.90;;;;;;4437438;32;20097;-64
2022/02/24 03:24:34;;;;;;;0.47;0.47;;;3.80;99.90;;;;;;4437581;32;20251;-64
2022/02/24 03:27:00;;;;;;;0.90;0.75;;;3.80;99.90;;;;;;4434175;32;20108;-64
2022/02/24 03:29:25;;;;;;;1.15;0.90;;;3.70;99.90;;;;;;4434979;32;20089;-64
2022/02/24 03:31:51;;;;;;;3.40;1.12;;;3.80;99.90;;;;;;4436736;32;20077;-64
2022/02/24 03:34:16;;;;;;;0.40;0.40;;;3.70;99.90;;;;;;4431568;32;20097;-64
2022/02/24 03:36:42;;;;;;;2.33;1.62;;;3.70;99.90;;;;;;4434608;32;20073;-64
2022/02/24 03:39:08;;;;;;;3.72;0.98;;;3.50;99.90;;;;;;4435769;32;20084;-64
2022/02/24 03:41:34;;;;;;;0.50;0.50;;;3.60;99.90;;;;;;4438321;32;20097;-64
2022/02/24 03:43:59;;;;;;;0.70;0.70;;;3.70;99.90;;;;;;4434099;32;20069;-64
2022/02/24 03:46:25;;;;;;;0.50;0.50;;;3.60;99.90;;;;;;4438653;32;20088;-64
2022/02/24 03:48:51;;;;;;;1.73;0.95;;;3.60;99.90;;;;;;4430944;32;20841;-64
2022/02/24 03:51:17;;;;;;;0.50;0.50;;;3.60;99.90;;;;;;4434486;32;20089;-64
2022/02/24 03:53:44;;;;;;;2.53;1.30;;;3.50;99.90;;;;;;4428956;32;20077;-64
2022/02/24 03:56:09;;;;;;;0.60;0.60;;;3.50;99.90;;;;;;4438086;32;20124;-64
2022/02/24 03:58:35;;;;;;;8.38;1.25;;;3.50;99.90;;;;;;4434744;32;20085;-64
2022/02/24 04:01:01;;;;;;;0.62;0.62;;;3.30;99.90;;;;;;4433668;32;20234;-64
2022/02/24 04:03:27;;;;;;;1.35;0.82;;;3.40;99.90;;;;;;4438467;32;20081;-64
2022/02/24 04:05:53;;;;;;;5.35;1.15;;;3.40;99.90;;;;;;4440177;32;20119;-64
2022/02/24 04:08:18;;;;;;;3.72;0.95;;;3.40;99.90;;;;;;4432852;32;20405;-64
2022/02/24 04:10:45;;;;;;;0.30;0.30;;;3.40;99.90;;;;;;4436343;32;20056;-64
2022/02/24 04:13:10;;;;;;;0.43;0.43;;;3.50;99.90;;;;;;4430793;32;20413;-64
2022/02/24 04:15:37;;;;;;;0.43;0.43;;;3.50;99.90;;;;;;4429613;32;20065;-64
2022/02/24 04:18:03;;;;;;;0.40;0.40;;;3.40;99.90;;;;;;4441117;32;20096;-64
2022/02/24 04:20:29;;;;;;;0.50;0.50;;;3.40;99.90;;;;;;4442947;32;20120;-64
2022/02/24 04:22:55;;;;;;;0.82;0.77;;;3.40;99.90;;;;;;4434601;32;20065;-64
2022/02/24 04:25:20;;;;;;;2.78;1.50;;;3.50;99.90;;;;;;4435088;32;20183;-64
2022/02/24 04:27:47;;;;;;;0.40;0.40;;;3.50;99.90;;;;;;4430658;32;20123;-65
2022/02/24 04:30:14;;;;;;;2.03;0.95;;;3.50;99.90;;;;;;4436684;32;20073;-64
2022/02/24 04:32:40;;;;;;;0.50;0.50;;;3.50;99.90;;;;;;4432136;32;20525;-64
2022/02/24 04:35:06;;;;;;;0.70;0.65;;;3.60;99.90;;;;;;4434640;32;20160;-64
2022/02/24 04:37:31;;;;;;;0.60;0.60;;;3.70;99.90;;;;;;4442161;32;20065;-64
2022/02/24 04:39:57;;;;;;;4.47;1.23;;;3.60;99.90;;;;;;4441180;32;20073;-64
2022/02/24 04:42:22;;;;;;;0.65;0.65;;;3.70;99.90;;;;;;4440746;32;20086;-64
2022/02/24 04:44:47;;;;;;;0.30;0.30;;;3.70;99.90;;;;;;4439617;32;20110;-64
2022/02/24 04:47:13;;;;;;;0.80;0.80;;;3.70;99.90;;;;;;4442982;32;20497;-64
2022/02/24 04:49:38;;;;;;;1.55;1.15;;;3.70;99.90;;;;;;4430835;32;20078;-64
2022/02/24 04:52:04;;;;;;;0.32;0.32;;;3.80;99.90;;;;;;4438289;32;20077;-64
2022/02/24 04:54:30;;;;;;;0.40;0.40;;;3.80;99.90;;;;;;4443102;32;20404;-64
2022/02/24 04:56:55;;;;;;;0.50;0.50;;;3.90;99.90;;;;;;4440310;32;20076;-64
2022/02/24 04:59:21;;;;;;;0.60;0.60;;;3.70;99.90;;;;;;4440591;32;20560;-64
2022/02/24 05:01:46;;;;;;;2.85;1.48;;;3.70;99.90;;;;;;4435199;32;20513;-64
2022/02/24 05:04:12;;;;;;;0.40;0.40;;;3.60;99.90;;;;;;4432991;32;20061;-64
2022/02/24 05:06:37;;;;;;;0.37;0.37;;;3.60;99.90;;;;;;4442738;32;20124;-64
2022/02/24 05:09:03;;;;;;;0.60;0.60;;;3.50;99.90;;;;;;4436630;32;20077;-64
2022/02/24 05:11:28;;;;;;;0.60;0.60;;;3.60;99.90;;;;;;4428691;32;20097;-64
2022/02/24 05:13:54;;;;;;;0.50;0.50;;;3.60;99.90;;;;;;4434783;32;20549;-64
2022/02/24 05:16:19;;;;;;;0.40;0.40;;;3.70;99.90;;;;;;4435870;32;20172;-64
2022/02/24 05:18:45;;;;;;;12.13;1.17;;;3.70;99.90;;;;;;4420120;32;20062;-64
2022/02/24 05:21:10;;;;;;;0.40;0.40;;;3.70;99.90;;;;;;4427511;32;20145;-64
2022/02/24 05:23:37;;;;;;;0.57;0.57;;;3.60;99.90;;;;;;4433334;32;20114;-65
2022/02/24 05:26:03;;;;;;;0.30;0.30;;;3.70;99.90;;;;;;4436728;32;20081;-64
2022/02/24 05:28:28;;;;;;;10.07;1.30;;;3.70;99.90;;;;;;4440938;32;20098;-64
2022/02/24 05:30:59;;;;;;;0.50;0.50;;;3.80;99.90;;;;;;4435954;32;20435;-64
2022/02/24 05:33:25;;;;;;;0.43;0.43;;;3.80;99.90;;;;;;4443224;32;20068;-64
2022/02/24 05:35:51;;;;;;;0.50;0.50;;;3.60;99.90;;;;;;4440523;32;20080;-65
2022/02/24 05:38:16;;;;;;;1.48;0.65;;;3.50;99.90;;;;;;4443056;32;20540;-64
2022/02/24 05:40:42;;;;;;;0.40;0.40;;;3.40;99.90;;;;;;4437529;32;20415;-64
2022/02/24 05:43:07;;;;;;;0.73;0.73;;;3.40;99.90;;;;;;4435896;32;20144;-64
2022/02/24 05:45:33;;;;;;;0.40;0.40;;;3.50;99.90;;;;;;4438751;32;20068;-64
2022/02/24 05:47:58;;;;;;;0.50;0.50;;;3.60;99.90;;;;;;4436705;32;20149;-64
2022/02/24 05:50:24;;;;;;;1.05;0.95;;;3.60;99.90;;;;;;4434158;32;20069;-64
2022/02/24 05:52:49;;;;;;;0.47;0.47;;;3.50;99.90;;;;;;4441021;32;20073;-64
2022/02/24 05:55:15;;;;;;;0.77;0.70;;;3.60;99.90;;;;;;4437992;32;20084;-64
2022/02/24 05:57:43;;;;;;;3.97;1.75;;;3.60;99.90;;;;;;4424599;32;20150;-65
2022/02/24 06:00:10;;;;;;;0.40;0.40;;;3.80;99.90;;;;;;4433760;32;20089;-65
2022/02/24 06:02:36;;;;;;;0.80;0.73;;;3.80;99.90;;;;;;4431960;32;21020;-64
2022/02/24 06:05:01;;;;;;;1.55;0.75;;;3.70;99.90;;;;;;4431268;32;20097;-64
2022/02/24 06:07:27;;;;;;;0.40;0.40;;;3.70;99.90;;;;;;4439654;32;20056;-64
2022/02/24 06:09:52;;;;;;;0.30;0.30;;;3.70;99.90;;;;;;4433928;32;20092;-64
2022/02/24 06:12:18;;;;;;;0.47;0.47;;;3.70;99.90;;;;;;4434033;32;20078;-64
2022/02/24 06:14:43;;;;;;;0.43;0.43;;;3.70;99.90;;;;;;4437018;32;20589;-64
2022/02/24 06:17:09;;;;;;;0.65;0.65;;;3.80;99.90;;;;;;4424121;32;20203;-64
2022/02/24 06:19:34;;;;;;;0.75;0.75;;;3.80;99.90;;;;;;4428368;32;20097;-64
2022/02/24 06:22:00;;;;;;;0.82;0.77;;;3.80;99.90;;;;;;4435068;32;20061;-64
2022/02/24 06:24:26;;;;;;;0.40;0.40;;;3.70;99.90;;;;;;4437132;32;20127;-64
2022/02/24 06:26:51;;;;;;;0.35;0.35;;;3.80;99.90;;;;;;4419249;32;20143;-64
2022/02/24 06:29:17;;;;;;;0.37;0.37;;;3.90;99.90;;;;;;4428518;32;20395;-64
2022/02/24 06:31:43;;;;;;;0.40;0.40;;;3.90;99.90;;;;;;4410064;32;20085;-64
2022/02/24 06:34:09;;;;;;;0.37;0.37;;;4.00;99.90;;;;;;4417064;32;20483;-65
2022/02/24 06:36:34;;;;;;;0.45;0.45;;;4.00;99.90;;;;;;4429713;32;20080;-65
2022/02/24 06:39:00;;;;;;;0.50;0.50;;;4.10;99.90;;;;;;4432084;32;20157;-65
2022/02/24 06:41:27;;;;;;;0.60;0.60;;;4.10;99.90;;;;;;4419129;32;20137;-64
2022/02/24 06:43:53;;;;;;;1.05;0.95;;;4.10;99.90;;;;;;4420452;32;20410;-64
2022/02/24 06:46:18;;;;;;;0.40;0.40;;;4.20;99.90;;;;;;4429635;32;20092;-64
2022/02/24 06:48:46;;;;;;;0.40;0.40;;;4.30;99.90;;;;;;4426799;32;20409;-65
2022/02/24 06:51:12;;;;;;;0.40;0.40;;;4.30;99.90;;;;;;4420530;32;20541;-65
2022/02/24 06:53:38;;;;;;;0.57;0.57;;;4.30;99.90;;;;;;4410556;32;20510;-66
2022/02/24 06:56:04;;;;;;;0.40;0.40;;;4.40;99.90;;;;;;4420178;32;20188;-65
2022/02/24 06:58:30;;;;;;;0.30;0.30;;;4.30;99.90;;;;;;4422590;32;20105;-64
2022/02/24 07:00:55;;;;;;;1.10;1.08;;;4.40;99.90;;;;;;4424314;32;20199;-64
2022/02/24 07:03:21;;;;;;;0.95;0.90;;;4.40;99.90;;;;;;4418684;32;21334;-64
2022/02/24 07:05:46;;;;;;;3.60;1.25;;;4.40;99.90;;;;;;4426121;32;20163;-65
2022/02/24 07:08:12;;;;;;;0.30;0.30;;;4.50;99.90;;;;;;4423396;32;20404;-65
2022/02/24 07:10:37;;;;;;;1.20;1.05;;;4.50;99.90;;;;;;4423498;32;20679;-65
2022/02/24 07:13:03;;;;;;;1.27;1.17;;;4.60;99.90;;;;;;4431389;32;20068;-64
2022/02/24 07:15:28;;;;;;;0.40;0.40;;;4.60;99.90;;;;;;4423448;32;20105;-64
2022/02/24 07:17:54;;;;;;;0.77;0.77;;;4.50;99.90;;;;;;4424552;32;20161;-64
2022/02/24 07:20:19;;;;;;;0.30;0.30;;;4.60;99.90;;;;;;4427524;32;20121;-64
2022/02/24 07:22:46;;;;;;;0.40;0.40;;;4.50;99.90;;;;;;4424367;32;20101;-64
2022/02/24 07:25:12;;;;;;;0.50;0.50;;;4.50;99.90;;;;;;4424716;32;20462;-65
2022/02/24 07:27:38;;;;;;;0.40;0.40;;;4.50;99.90;;;;;;4420146;32;20085;-65
2022/02/24 07:30:05;;;;;;;0.93;0.75;;;4.60;99.90;;;;;;4409772;32;20065;-64
2022/02/24 07:32:31;;;;;;;0.40;0.40;;;4.60;99.90;;;;;;4423461;32;20092;-64
2022/02/24 07:34:57;;;;;;;3.33;1.37;;;4.70;99.90;;;;;;4414958;32;109586;-64
2022/02/24 07:37:23;;;;;;;1.35;1.25;;;4.70;99.90;;;;;;4413499;32;20077;-64
2022/02/24 07:39:48;;;;;;;0.57;0.57;;;4.70;99.90;;;;;;4419656;32;20140;-65
2022/02/24 07:42:17;;;;;;;7.70;1.05;;;4.80;99.90;;;;;;4421606;32;20554;-64
2022/02/24 07:44:44;;;;;;;0.98;0.70;;;4.80;99.90;;;;;;4417431;32;20197;-64
2022/02/24 07:47:10;;;;;;;0.40;0.40;;;4.80;99.90;;;;;;4420898;32;20073;-64
2022/02/24 07:49:35;;;;;;;0.35;0.35;;;4.80;99.90;;;;;;4420867;32;20100;-65
2022/02/24 07:52:01;;;;;;;0.50;0.50;;;4.80;99.90;;;;;;4417152;32;20109;-64
2022/02/24 07:54:26;;;;;;;2.87;1.42;;;4.80;99.90;;;;;;4425549;32;20139;-65
2022/02/24 07:56:52;;;;;;;0.40;0.40;;;4.80;99.90;;;;;;4425330;32;20081;-65
2022/02/24 07:59:20;;;;;;;1.40;0.77;;;4.80;99.90;;;;;;4424181;32;20406;-65
2022/02/24 08:01:46;;;;;;;0.45;0.45;;;4.90;99.90;;;;;;4426247;32;20080;-65
2022/02/24 08:04:12;;;;;;;0.43;0.43;;;5.00;99.90;;;;;;4419745;32;20717;-65
2022/02/24 08:06:37;;;;;;;0.40;0.40;;;5.10;99.90;;;;;;4425548;32;20252;-64
2022/02/24 08:09:05;;;;;;;0.65;0.65;;;5.30;99.90;;;;;;4423158;32;20552;-64
2022/02/24 08:11:31;;;;;;;0.30;0.30;;;5.30;99.90;;;;;;4423062;32;20164;-65
2022/02/24 08:13:57;;;;;;;0.40;0.40;;;5.30;99.90;;;;;;4420477;32;20541;-65
2022/02/24 08:16:22;;;;;;;0.30;0.30;;;5.30;99.90;;;;;;4421346;32;20073;-65
2022/02/24 08:18:48;;;;;;;0.40;0.40;;;5.40;99.90;;;;;;4422077;32;20117;-66
2022/02/24 08:21:13;;;;;;;0.32;0.32;;;5.40;99.90;;;;;;4420950;32;20088;-65
2022/02/24 08:23:39;;;;;;;0.50;0.50;;;5.50;99.90;;;;;;4420744;32;20579;-65
2022/02/24 08:26:04;;;;;;;0.60;0.60;;;5.60;99.90;;;;;;4423616;32;20081;-65
2022/02/24 08:28:30;;;;;;;0.60;0.60;;;5.60;99.90;;;;;;4425036;32;20065;-65
2022/02/24 08:30:55;;;;;;;0.50;0.50;;;5.80;99.90;;;;;;4420387;32;20435;-65
2022/02/24 08:33:21;;;;;;;0.45;0.43;;;5.80;99.90;;;;;;4424316;32;20069;-66
2022/02/24 08:35:46;;;;;;;0.60;0.60;;;6.00;99.90;;;;;;4415319;32;20122;-67
2022/02/24 08:38:12;;;;;;;0.40;0.40;;;6.10;99.90;;;;;;4422191;32;20085;-67
2022/02/24 08:40:37;;;;;;;0.40;0.40;;;6.10;99.90;;;;;;4423255;32;20080;-67
2022/02/24 08:43:03;;;;;;;0.55;0.50;;;6.10;99.90;;;;;;4415884;32;21870;-67
2022/02/24 08:45:32;;;;;;;0.35;0.35;;;6.10;99.90;;;;;;4418353;32;20073;-66
2022/02/24 08:47:58;;;;;;;0.32;0.32;;;6.20;99.90;;;;;;4416787;32;20136;-67
2022/02/24 08:50:23;;;;;;;1.85;1.30;;;6.20;99.90;;;;;;4413550;32;20109;-66
2022/02/24 08:52:49;;;;;;;0.30;0.30;;;6.40;99.90;;;;;;4411400;32;20126;-64
2022/02/24 08:55:14;;;;;;;0.32;0.32;;;6.30;99.90;;;;;;4415836;32;20782;-65
2022/02/24 08:57:40;;;;;;;0.57;0.57;;;6.30;99.90;;;;;;4417339;32;20189;-65
2022/02/24 09:00:08;;;;;;;0.85;0.82;;;6.50;99.90;;;;;;4421950;32;20176;-66
2022/02/24 09:02:34;;;;;;;0.40;0.40;;;6.50;99.90;;;;;;4423628;32;20093;-66
2022/02/24 09:05:01;;;;;;;1.15;1.02;;;6.60;99.90;;;;;;4423789;32;20101;-66
2022/02/24 09:07:27;;;;;;;1.00;0.98;;;6.80;99.90;;;;;;4425174;32;20086;-66
2022/02/24 09:09:52;;;;;;;0.40;0.40;;;7.00;99.90;;;;;;4424604;32;20081;-66
2022/02/24 09:12:18;;;;;;;4.43;1.50;;;7.20;99.90;;;;;;4429476;32;20460;-65
2022/02/24 09:14:43;;;;;;;0.43;0.43;;;7.30;99.90;;;;;;4431820;32;20097;-66
2022/02/24 09:17:10;;;;;;;0.35;0.35;;;7.40;99.90;;;;;;4427102;32;20126;-66
2022/02/24 09:19:36;;;;;;;0.35;0.35;;;7.70;99.90;;;;;;4426820;32;20084;-66
2022/02/24 09:22:03;;;;;;;0.40;0.40;;;7.70;99.90;;;;;;4428631;32;20573;-66
2022/02/24 09:24:29;;;;;;;0.40;0.40;;;7.70;99.90;;;;;;4418114;32;20212;-65
2022/02/24 09:26:54;;;;;;;0.50;0.50;;;7.70;99.90;;;;;;4418946;32;20106;-65
2022/02/24 09:29:20;;;;;;;0.60;0.60;;;7.70;99.90;;;;;;4418702;32;20651;-66
2022/02/24 09:31:45;;;;;;;0.30;0.30;;;7.70;99.90;;;;;;4422133;32;20143;-65
2022/02/24 09:34:11;;;;;;;0.60;0.60;;;7.90;99.90;;;;;;4425202;32;20081;-66
2022/02/24 09:36:36;;;;;;;0.52;0.52;;;8.10;99.90;;;;;;4420954;32;20586;-66
2022/02/24 09:39:02;;;;;;;0.30;0.30;;;8.10;99.90;;;;;;4421836;32;20091;-66
2022/02/24 09:41:27;;;;;;;0.62;0.43;;;8.40;99.90;;;;;;4418690;32;20093;-66
2022/02/24 09:43:54;;;;;;;1.75;0.90;;;8.40;99.90;;;;;;4421737;32;20679;-66
2022/02/24 09:46:20;;;;;;;0.60;0.60;;;8.30;99.90;;;;;;4420171;32;20078;-65
2022/02/24 09:48:46;;;;;;;0.40;0.40;;;8.20;99.90;;;;;;4422749;32;20465;-66
2022/02/24 09:51:17;;;;;;;1.25;0.80;;;8.20;99.90;;;;;;4417076;32;20101;-66
2022/02/24 09:53:44;;;;;;;0.50;0.50;;;8.30;99.90;;;;;;4408682;32;20110;-66
2022/02/24 09:56:29;;;;;;;1.23;0.70;;;8.20;99.90;;;;;;4408251;32;20116;-66
2022/02/24 09:58:56;;;;;;;0.30;0.30;;;8.20;99.90;;;;;;4408934;32;20133;-65
2022/02/24 10:01:23;;;;;;;0.30;0.30;;;8.30;99.90;;;;;;4413636;32;20205;-65
2022/02/24 10:03:59;;;;;;;0.40;0.40;;;8.30;99.90;;;;;;4413477;32;20068;-65
2022/02/24 10:06:43;;;;;;;7.28;0.88;;;8.30;99.90;;;;;;4412986;32;20093;-66
2022/02/24 10:09:10;;;;;;;2.03;0.60;;;8.30;99.90;;;;;;4413868;32;20085;-66
2022/02/24 10:11:39;;;;;;;0.68;0.68;;;8.30;99.90;;;;;;4415886;32;20248;-67
2022/02/24 10:14:07;;;;;;;0.43;0.43;;;8.20;99.90;;;;;;4420393;32;20104;-66
2022/02/24 10:16:59;;;;;;;21.45;0.70;;;8.30;99.90;;;;;;4410746;32;20142;-66
2022/02/24 10:19:28;;;;;;;0.73;0.70;;;8.40;99.90;;;;;;4392388;32;20117;-67
2022/02/24 10:22:19;;;;;;;0.60;0.60;;;8.40;99.90;;;;;;4410612;32;20104;-67
2022/02/24 10:24:45;;;;;;;;;;;8.40;99.90;;;;;;4404336;32;20121;-66
2022/02/24 10:27:32;;;;;;;0.30;0.30;;;8.50;99.90;;;;;;4411788;32;20424;-66
2022/02/24 10:30:16;;;;;;;2.12;0.85;;;8.50;99.90;;;;;;4408143;32;20081;-66
2022/02/24 10:32:44;;;;;;;0.50;0.50;;;8.50;99.90;;;;;;4403813;32;20093;-65
2022/02/24 10:35:20;;;;;;;0.65;0.65;;;8.60;99.90;;;;;;4406726;32;20164;-65
2022/02/24 10:38:03;;;;;;;0.40;0.40;;;8.70;99.90;;;;;;4408786;32;20106;-65
2022/02/24 10:40:32;;;;;;;0.50;0.50;;;8.90;99.90;;;;;;4413132;32;20176;-65
2022/02/24 10:43:20;;;;;;;0.40;0.40;;;9.00;99.90;;;;;;4408857;32;20105;-65
2022/02/24 10:46:04;;;;;;;0.65;0.65;;;9.00;99.90;;;;;;4404535;32;20648;-65
2022/02/24 10:48:32;;;;;;;0.30;0.30;;;9.00;99.90;;;;;;4414641;32;21273;-65
2022/02/24 10:51:01;;;;;;;0.45;0.40;;;8.90;99.90;;;;;;4416467;32;20133;-65
2022/02/24 10:53:30;;;;;;;0.40;0.40;;;8.90;99.90;;;;;;4414790;32;20548;-66
2022/02/24 10:55:59;;;;;;;0.90;0.85;;;8.90;99.90;;;;;;4413787;32;20357;-64
2022/02/24 10:58:27;;;;;;;0.50;0.50;;;8.90;99.90;;;;;;4415607;32;20119;-64
2022/02/24 11:01:05;;;;;;;0.40;0.40;;;8.90;99.90;;;;;;4406273;32;20332;-65
2022/02/24 11:03:31;;;;;;;0.30;0.30;;;8.80;99.90;;;;;;4404738;32;20577;-65
2022/02/24 11:05:59;;;;;;;2.42;1.65;;;8.80;99.90;;;;;;4405310;32;20101;-65
2022/02/24 11:08:26;;;;;;;0.80;0.80;;;8.80;99.90;;;;;;4409992;32;20207;-65
2022/02/24 11:10:53;;;;;;;0.32;0.32;;;8.80;99.90;;;;;;4410135;32;20116;-65
2022/02/24 11:13:18;;;;;;;0.37;0.37;;;8.80;99.90;;;;;;4400201;32;20180;-65
2022/02/24 11:15:44;;;;;;;0.52;0.52;;;8.80;99.90;;;;;;4400438;32;20539;-65
2022/02/24 11:18:10;;;;;;;0.30;0.30;;;8.80;99.90;;;;;;4409368;32;20400;-64
2022/02/24 11:20:36;;;;;;;2.95;0.55;;;8.80;99.90;;;;;;4418016;32;20098;-64
2022/02/24 11:23:02;;;;;;;0.40;0.40;;;8.80;99.90;;;;;;4417627;32;20121;-64
2022/02/24 11:25:32;;;;;;;0.40;0.40;;;8.90;99.90;;;;;;4421179;32;20076;-65
2022/02/24 11:28:00;;;;;;;0.70;0.70;;;8.80;99.90;;;;;;4415002;32;20104;-65
2022/02/24 11:30:29;;;;;;;1.55;0.82;;;8.80;99.90;;;;;;4425328;32;20122;-65
2022/02/24 11:32:55;;;;;;;0.50;0.50;;;8.90;99.90;;;;;;4421932;32;20093;-65
2022/02/24 11:35:22;;;;;;;0.98;0.93;;;8.90;99.90;;;;;;4424999;32;20089;-65
2022/02/24 11:38:09;;;;;;;2.20;0.90;;;8.90;99.90;;;;;;4424363;32;20481;-65
2022/02/24 11:40:38;;;;;;;0.50;0.50;;;8.90;99.90;;;;;;4413338;32;20485;-66
2022/02/24 11:43:08;;;;;;;0.43;0.43;;;8.90;99.90;;;;;;4427811;32;20136;-66
2022/02/24 11:45:38;;;;;;;2.17;1.08;;;9.00;99.90;;;;;;4426720;32;20061;-66
2022/02/24 11:48:07;;;;;;;1.37;1.25;;;9.10;99.90;;;;;;4417277;32;20076;-67
2022/02/24 11:50:35;;;;;;;0.85;0.85;;;9.00;99.90;;;;;;4414151;32;20161;-65
2022/02/24 11:53:03;;;;;;;0.50;0.50;;;9.00;99.90;;;;;;4414239;32;20109;-64
2022/02/24 11:55:49;;;;;;;4.07;1.17;;;9.10;99.90;;;;;;4414965;32;20101;-64
2022/02/24 11:58:32;;;;;;;0.65;0.65;;;9.00;99.90;;;;;;4414805;32;20232;-65
2022/02/24 12:01:15;;;;;;;1.55;0.95;;;9.10;99.90;;;;;;4420880;32;20118;-65
2022/02/24 12:03:47;;;;;;;7.05;0.73;;;9.20;99.90;;;;;;4414838;32;20117;-65
2022/02/24 12:06:22;;;;;;;0.40;0.40;;;9.20;99.90;;;;;;4422550;32;20672;-67
2022/02/24 12:09:25;;;;;;;0.40;0.40;;;9.30;99.90;;;;;;4419980;32;20867;-66
2022/02/24 12:12:20;;;;;;;1.67;1.12;;;9.30;99.90;;;;;;4409216;32;20112;-66
2022/02/24 12:14:48;;;;;;;2.03;1.25;;;9.40;99.90;;;;;;4424069;32;20101;-65
2022/02/24 12:17:15;;;;;;;0.40;0.40;;;9.40;99.90;;;;;;4415324;32;20114;-65
2022/02/24 12:19:43;;;;;;;0.75;0.75;;;9.40;99.90;;;;;;4419045;32;20195;-65
2022/02/24 12:22:14;;;;;;;0.30;0.30;;;9.40;99.90;;;;;;4421317;32;20092;-65
2022/02/24 12:24:44;;;;;;;3.87;1.12;;;9.40;99.90;;;;;;4421880;32;20733;-65
2022/02/24 12:27:36;;;;;;;0.67;0.63;;;9.40;99.90;;;;;;4422053;32;20082;-65
2022/02/24 12:30:06;;;;;;;7.50;0.90;;;9.40;99.90;;;;;;4421236;32;20057;-66
2022/02/24 12:32:57;;;;;;;0.60;0.60;;;9.40;99.90;;;;;;4426123;32;20065;-65
2022/02/24 12:35:25;;;;;;;0.40;0.40;;;9.50;99.90;;;;;;4422594;32;20169;-66
2022/02/24 12:37:52;;;;;;;0.40;0.40;;;9.50;99.90;;;;;;4416918;32;20348;-66
2022/02/24 12:40:24;;;;;;;1.40;0.50;;;9.50;99.90;;;;;;4423534;32;20097;-66
2022/02/24 12:42:50;;;;;;;0.50;0.50;;;9.60;99.90;;;;;;4419741;32;20526;-65
2022/02/24 12:45:18;;;;;;;0.52;0.52;;;9.60;99.90;;;;;;4417391;32;21427;-65
2022/02/24 12:47:47;;;;;;;0.50;0.50;;;9.60;99.90;;;;;;4418178;32;20071;-65
2022/02/24 12:50:19;;;;;;;0.50;0.50;;;9.60;99.90;;;;;;4419876;32;20088;-65
2022/02/24 12:52:45;;;;;;;0.50;0.50;;;9.60;99.90;;;;;;4422601;32;20089;-65
2022/02/24 12:55:11;;;;;;;0.45;0.45;;;9.70;99.90;;;;;;4419582;32;20093;-65
2022/02/24 12:57:36;;;;;;;0.50;0.50;;;9.80;99.90;;;;;;4423673;32;20705;-65
2022/02/24 13:00:03;;;;;;;1.55;1.08;;;9.80;99.90;;;;;;4420887;32;20465;-65
2022/02/24 13:02:28;;;;;;;0.47;0.47;;;9.80;99.90;;;;;;4420178;32;20151;-65